createdAt,value
2022-11-09T00:00:29.470Z,9.56
2022-11-09T00:05:31.497Z,9.55
2022-11-09T00:10:34.325Z,9.62
2022-11-09T00:15:36.363Z,9.63
2022-11-09T00:20:40.972Z,9.66
2022-11-09T00:25:45.438Z,9.61
2022-11-09T00:30:47.450Z,9.64
2022-11-09T00:35:49.470Z,9.62
2022-11-09T00:40:51.468Z,9.63
2022-11-09T00:45:53.496Z,9.61
2022-11-09T00:50:57.108Z,9.54
2022-11-09T00:56:04.784Z,9.56
2022-11-09T01:01:08.438Z,9.47
2022-11-09T01:06:16.540Z,9.52
2022-11-09T01:11:20.635Z,9.51
2022-11-09T01:16:24.188Z,9.45
2022-11-09T01:21:27.522Z,9.44
2022-11-09T01:26:29.777Z,9.40
2022-11-09T01:31:31.854Z,9.39
2022-11-09T01:36:33.883Z,9.40
2022-11-09T01:41:35.924Z,9.35
2022-11-09T01:46:46.698Z,9.32
2022-11-09T01:51:58.985Z,9.30
2022-11-09T01:57:06.214Z,9.30
2022-11-09T02:02:09.214Z,9.26
2022-11-09T02:07:11.480Z,9.13
2022-11-09T02:12:14.028Z,8.98
2022-11-09T02:17:16.787Z,8.96
2022-11-09T02:22:18.907Z,8.98
2022-11-09T02:27:21.747Z,8.89
2022-11-09T02:32:27.518Z,8.80
2022-11-09T02:37:47.611Z,8.77
2022-11-09T02:42:49.639Z,8.74
2022-11-09T02:47:51.650Z,8.68
2022-11-09T02:52:53.664Z,8.67
2022-11-09T02:57:55.709Z,8.58
2022-11-09T03:02:58.251Z,8.57
2022-11-09T03:08:02.631Z,8.60
2022-11-09T03:13:04.832Z,8.65
2022-11-09T03:18:06.932Z,8.71
2022-11-09T03:23:11.231Z,8.74
2022-11-09T03:28:13.248Z,8.76
2022-11-09T03:33:15.241Z,8.76
2022-11-09T03:38:17.817Z,8.77
2022-11-09T03:43:20.146Z,8.78
2022-11-09T03:48:23.056Z,8.70
2022-11-09T03:53:25.091Z,8.71
2022-11-09T03:58:27.145Z,8.63
2022-11-09T04:03:29.194Z,8.60
2022-11-09T04:08:31.259Z,8.61
2022-11-09T04:13:33.280Z,8.64
2022-11-09T04:18:35.341Z,8.65
2022-11-09T04:23:37.400Z,8.54
2022-11-09T04:28:39.438Z,8.55
2022-11-09T04:33:41.477Z,8.54
2022-11-09T04:38:43.593Z,8.53
2022-11-09T04:43:45.656Z,8.61
2022-11-09T04:48:47.689Z,8.61
2022-11-09T04:53:49.718Z,8.60
2022-11-09T04:58:51.786Z,8.67
2022-11-09T05:03:54.090Z,8.70
2022-11-09T05:08:56.597Z,8.62
2022-11-09T05:13:59.075Z,8.58
2022-11-09T05:19:01.107Z,8.61
2022-11-09T05:24:03.332Z,8.58
2022-11-09T05:29:08.418Z,8.63
2022-11-09T05:34:13.176Z,8.69
2022-11-09T05:39:15.211Z,8.72
2022-11-09T05:44:17.237Z,8.73
2022-11-09T05:49:19.294Z,8.74
2022-11-09T05:54:21.354Z,8.71
2022-11-09T05:59:23.402Z,8.73
2022-11-09T06:04:27.558Z,8.73
2022-11-09T06:09:29.569Z,8.73
2022-11-09T06:14:31.588Z,8.78
2022-11-09T06:19:33.638Z,8.75
2022-11-09T06:24:35.721Z,8.72
2022-11-09T06:29:37.753Z,8.61
2022-11-09T06:34:40.268Z,8.65
2022-11-09T06:39:42.315Z,8.71
2022-11-09T06:44:44.339Z,8.74
2022-11-09T06:49:46.363Z,8.74
2022-11-09T06:54:48.370Z,8.74
2022-11-09T06:59:50.387Z,8.74
2022-11-09T07:04:52.859Z,8.80
2022-11-09T07:09:55.853Z,8.88
2022-11-09T07:14:57.950Z,8.92
2022-11-09T07:20:00.657Z,9.13
2022-11-09T07:25:02.652Z,9.21
2022-11-09T07:30:05.228Z,9.31
2022-11-09T07:35:08.264Z,9.42
2022-11-09T07:40:15.551Z,9.35
2022-11-09T07:45:17.657Z,9.55
2022-11-09T07:50:19.659Z,9.70
2022-11-09T07:55:22.143Z,9.76
2022-11-09T08:00:25.330Z,9.74
2022-11-09T08:05:27.412Z,9.63
2022-11-09T08:10:31.236Z,9.59
2022-11-09T08:15:34.591Z,9.58
2022-11-09T08:20:36.942Z,9.58
2022-11-09T08:25:39.733Z,9.49
2022-11-09T08:30:43.110Z,9.65
2022-11-09T08:35:48.028Z,9.64
2022-11-09T08:40:58.726Z,9.72
2022-11-09T08:46:00.899Z,9.58
2022-11-09T08:51:03.013Z,9.76
2022-11-09T08:56:08.951Z,9.77
2022-11-09T09:01:16.724Z,9.72
2022-11-09T09:06:19.272Z,9.78
2022-11-09T09:11:21.307Z,9.87
2022-11-09T09:16:23.311Z,9.97
2022-11-09T09:21:25.429Z,9.86
2022-11-09T09:26:27.500Z,9.95
2022-11-09T09:31:29.559Z,9.86
2022-11-09T09:36:32.035Z,9.97
2022-11-09T09:41:49.113Z,9.95
2022-11-09T09:47:15.600Z,9.97
2022-11-09T09:52:32.648Z,10.10
2022-11-09T09:57:41.559Z,10.12
2022-11-09T10:02:44.070Z,10.15
2022-11-09T10:08:05.671Z,10.24
2022-11-09T10:13:26.594Z,10.43
2022-11-09T10:18:41.776Z,10.39
2022-11-09T10:24:32.070Z,10.48
2022-11-09T10:29:46.416Z,10.46
2022-11-09T10:35:00.405Z,10.45
2022-11-09T10:40:08.543Z,10.66
2022-11-09T10:45:26.564Z,10.85
2022-11-09T10:50:47.064Z,10.76
2022-11-09T10:55:57.809Z,10.75
2022-11-09T11:01:13.540Z,10.66
2022-11-09T11:06:18.844Z,10.53
2022-11-09T11:11:34.476Z,10.48
2022-11-09T11:16:38.998Z,10.58
2022-11-09T11:21:41.062Z,10.48
2022-11-09T11:27:11.366Z,10.49
2022-11-09T11:32:16.376Z,10.45
2022-11-09T11:37:41.941Z,10.46
2022-11-09T11:43:03.119Z,10.53
2022-11-09T11:48:21.667Z,10.49
2022-11-09T11:53:48.207Z,10.44
2022-11-09T11:59:09.003Z,10.51
2022-11-09T12:05:03.248Z,10.49
2022-11-09T12:10:13.793Z,10.63
2022-11-09T12:15:32.670Z,10.54
2022-11-09T12:20:43.567Z,10.54
2022-11-09T12:25:59.350Z,10.52
2022-11-09T12:31:19.730Z,10.58
2022-11-09T12:36:35.394Z,10.47
2022-11-09T12:41:39.297Z,10.38
2022-11-09T12:47:03.790Z,10.39
2022-11-09T12:52:08.180Z,10.46
2022-11-09T12:57:15.037Z,10.55
2022-11-09T13:02:22.508Z,10.46
2022-11-09T13:07:50.508Z,10.44
2022-11-09T13:13:03.323Z,10.47
2022-11-09T13:18:26.910Z,10.38
2022-11-09T13:24:01.258Z,10.29
2022-11-09T13:29:22.990Z,10.23
2022-11-09T13:34:49.694Z,10.30
2022-11-09T13:39:51.825Z,10.33
2022-11-09T13:45:14.237Z,10.38
2022-11-09T13:50:28.117Z,10.34
2022-11-09T13:55:37.632Z,10.35
2022-11-09T14:00:45.969Z,10.31
2022-11-09T14:05:55.097Z,10.21
2022-11-09T14:11:20.548Z,10.14
2022-11-09T14:16:37.430Z,10.16
2022-11-09T14:21:53.073Z,10.11
2022-11-09T14:27:05.365Z,10.18
2022-11-09T14:32:30.888Z,10.18
2022-11-09T14:37:36.656Z,10.22
2022-11-09T14:42:42.152Z,10.22
2022-11-09T14:47:50.894Z,10.24
2022-11-09T14:52:55.186Z,10.22
2022-11-09T14:57:57.395Z,10.23
2022-11-09T15:03:01.071Z,10.21
2022-11-09T15:08:03.462Z,10.24
2022-11-09T15:13:05.874Z,10.21
2022-11-09T15:18:19.004Z,10.15
2022-11-09T15:23:39.144Z,10.22
2022-11-09T15:28:46.520Z,10.14
2022-11-09T15:33:55.157Z,10.15
2022-11-09T15:39:01.171Z,10.15
2022-11-09T15:44:04.175Z,10.16
2022-11-09T15:49:16.688Z,10.15
2022-11-09T15:54:20.630Z,10.16
2022-11-09T15:59:26.722Z,10.16
2022-11-09T16:04:28.784Z,10.18
2022-11-09T16:09:30.806Z,10.21
2022-11-09T16:14:33.670Z,10.18
2022-11-09T16:19:35.781Z,10.16
2022-11-09T16:24:37.913Z,10.16
2022-11-09T16:29:40.603Z,10.12
2022-11-09T16:34:42.610Z,10.15
2022-11-09T16:39:44.935Z,10.20
2022-11-09T16:44:49.508Z,10.25
2022-11-09T16:49:51.526Z,10.22
2022-11-09T16:54:53.539Z,10.28
2022-11-09T16:59:55.564Z,10.30
2022-11-09T17:04:57.574Z,10.29
2022-11-09T17:09:59.651Z,10.24
2022-11-09T17:15:01.914Z,10.30
2022-11-09T17:20:06.970Z,10.31
2022-11-09T17:25:09.342Z,10.33
2022-11-09T17:30:11.873Z,10.33
2022-11-09T17:35:14.325Z,10.32
2022-11-09T17:40:19.681Z,10.32
2022-11-09T17:45:21.685Z,10.34
2022-11-09T17:50:23.812Z,10.36
2022-11-09T17:55:25.852Z,10.38
2022-11-09T18:00:27.995Z,10.42
2022-11-09T18:05:30.000Z,10.41
2022-11-09T18:10:32.112Z,10.41
2022-11-09T18:15:36.695Z,10.38
2022-11-09T18:20:41.683Z,10.42
2022-11-09T18:25:43.753Z,10.45
2022-11-09T18:30:45.779Z,10.41
2022-11-09T18:36:02.236Z,10.42
2022-11-09T18:41:05.580Z,10.46
2022-11-09T18:46:10.866Z,10.49
2022-11-09T18:51:12.947Z,10.40
2022-11-09T18:56:24.597Z,10.44
2022-11-09T19:01:29.753Z,10.46
2022-11-09T19:06:32.189Z,10.46
2022-11-09T19:11:34.360Z,10.44
2022-11-09T19:16:36.634Z,10.44
2022-11-09T19:21:43.536Z,10.42
2022-11-09T19:26:46.113Z,10.38
2022-11-09T19:31:48.666Z,10.35
2022-11-09T19:36:50.731Z,10.35
2022-11-09T19:41:53.010Z,10.35
2022-11-09T19:46:55.090Z,10.33
2022-11-09T19:51:57.258Z,10.32
2022-11-09T19:56:59.343Z,10.36
2022-11-09T20:02:01.713Z,10.24
2022-11-09T20:07:04.331Z,10.26
2022-11-09T20:12:25.306Z,10.24
2022-11-09T20:17:27.336Z,10.21
2022-11-09T20:22:29.761Z,10.16
2022-11-09T20:27:32.429Z,10.14
2022-11-09T20:32:34.638Z,10.22
2022-11-09T20:37:36.939Z,10.21
2022-11-09T20:42:39.180Z,10.29
2022-11-09T20:48:05.169Z,10.32
2022-11-09T20:53:06.610Z,10.29
2022-11-09T20:58:13.685Z,10.31
2022-11-09T21:03:15.735Z,10.25
2022-11-09T21:08:17.865Z,10.26
2022-11-09T21:13:20.638Z,10.24
2022-11-09T21:18:23.038Z,10.29
2022-11-09T21:23:25.265Z,10.22
2022-11-09T21:28:47.514Z,10.25
2022-11-09T21:33:52.511Z,10.25
2022-11-09T21:38:54.530Z,10.26
2022-11-09T21:43:57.466Z,10.22
2022-11-09T21:48:59.779Z,10.31
2022-11-09T21:54:02.450Z,10.30
2022-11-09T21:59:05.087Z,10.36
2022-11-09T22:04:07.869Z,10.38
2022-11-09T22:09:17.739Z,10.41
2022-11-09T22:14:38.876Z,10.43
2022-11-09T22:19:59.868Z,10.47
2022-11-09T22:25:01.977Z,10.44
2022-11-09T22:30:04.423Z,10.35
2022-11-09T22:35:06.669Z,10.32
2022-11-09T22:40:09.277Z,10.32
2022-11-09T22:45:11.267Z,10.27
2022-11-09T22:50:13.296Z,10.28
2022-11-09T22:55:15.621Z,10.32
2022-11-09T23:00:18.049Z,10.34
2022-11-09T23:05:20.083Z,10.35
2022-11-09T23:10:22.162Z,10.36
2022-11-09T23:15:24.170Z,10.35
2022-11-09T23:20:29.933Z,10.28
2022-11-09T23:25:54.359Z,10.34
2022-11-09T23:31:11.559Z,10.34
2022-11-09T23:36:13.902Z,10.30
2022-11-09T23:41:16.487Z,10.38
2022-11-09T23:46:18.541Z,10.37
2022-11-09T23:51:20.559Z,10.36
2022-11-09T23:56:22.572Z,10.37
